Weather reports worldwide

Advertisment
Glasgow/Intl, United Kingdom (3140): temperature & dewpoint: 31.05.2020 11:00:00 - 06.06.2020 11:00:00 (BST)Glasgow/Intl, United Kingdom (3140): wind speed: 31.05.2020 11:00:00 - 06.06.2020 11:00:00 (BST)Glasgow/Intl, United Kingdom (3140): wind direction: 31.05.2020 11:00:00 - 06.06.2020 11:00:00 (BST)Glasgow/Intl, United Kingdom (3140): visibility: 31.05.2020 11:00:00 - 06.06.2020 11:00:00 (BST)
Date & Time tt [°C] td [°C] ff [km/h] ff [kn] dd vv [km]
06.06.2020 11:00:00 17,0 6,0 21 11 NNE 10
06.06.2020 10:00:00 15,0 7,0 21 11 N 10
06.06.2020 09:00:00 12,0 8,0 13 7 W 10
06.06.2020 08:00:00 12,0 8,0 9 5 WNW 10
06.06.2020 07:00:00 12,0 6,0 9 5 NW 10
06.06.2020 06:00:00 12,0 6,0 13 7 NNW 10
06.06.2020 05:00:00 11,0 8,0 8 4 W 10
06.06.2020 04:00:00 11,0 8,0 11 6 W 10
06.06.2020 03:00:00 10,0 7,0 16 9 W 10
06.06.2020 02:00:00 10,0 7,0 21 11 W 10
06.06.2020 01:00:00 9,0 6,0 15 8 W 10
06.06.2020 00:00:00 9,0 5,0 26 14 WNW 10
05.06.2020 23:00:00 9,0 5,0 29 16 WNW 10
05.06.2020 22:00:00 9,0 4,0 34 18 WNW 10
05.06.2020 21:00:00 9,0 4,0 28 15 W 10
05.06.2020 20:00:00 9,0 3,0 29 16 W 10
05.06.2020 19:00:00 11,0 3,0 37 20 WNW 10
05.06.2020 18:00:00 11,0 3,0 39 21 WNW 10
05.06.2020 17:00:00 12,0 4,0 41 22 WNW 10
05.06.2020 16:00:00 13,0 3,0 41 22 WNW 10
05.06.2020 15:00:00 13,0 3,0 39 21 WNW 10
05.06.2020 14:00:00 13,0 2,0 37 20 W 10
05.06.2020 13:00:00 13,0 3,0 34 18 WNW 10
05.06.2020 12:00:00 12,0 4,0 28 15 W 10
05.06.2020 11:00:00 12,0 4,0 26 14 WNW 10
05.06.2020 10:00:00 11,0 4,0 22 12 WNW 10
05.06.2020 09:00:00 9,0 3,0 22 12 W 10
05.06.2020 08:00:00 8,0 4,0 21 11 WNW 10
05.06.2020 07:00:00 7,0 4,0 15 8 WNW 10
05.06.2020 06:00:00 7,0 4,0 16 9 WNW 10
05.06.2020 05:00:00 7,0 4,0 18 10 WNW 10
05.06.2020 04:00:00 6,0 5,0 4 2 WSW 10
05.06.2020 03:00:00 8,0 6,0 5 3 W 10
05.06.2020 02:00:00 7,0 6,0 4 2 - 10
05.06.2020 01:00:00 8,0 6,0 5 3 W 10
05.06.2020 00:00:00 8,0 6,0 2 1 W 10
04.06.2020 23:00:00 8,0 6,0 8 4 ENE 10
04.06.2020 22:00:00 9,0 7,0 16 9 ENE 10
04.06.2020 21:00:00 9,0 7,0 22 12 ENE 10
04.06.2020 20:00:00 11,0 9,0 8 4 ENE 10
04.06.2020 19:00:00 13,0 8,0 11 6 N 10
04.06.2020 18:00:00 14,0 8,0 15 8 N 10
04.06.2020 17:00:00 13,0 8,0 11 6 N 10
04.06.2020 16:00:00 15,0 7,0 26 14 WNW 10
04.06.2020 15:00:00 16,0 8,0 21 11 WNW 10
04.06.2020 14:00:00 15,0 8,0 22 12 W 10
04.06.2020 13:00:00 14,0 9,0 18 10 WSW 10
04.06.2020 12:00:00 14,0 8,0 13 7 WNW 10
04.06.2020 11:00:00 13,0 9,0 11 6 WSW 10
04.06.2020 10:00:00 11,0 8,0 15 8 WSW 10
04.06.2020 09:00:00 11,0 6,0 11 6 W 10
04.06.2020 08:00:00 10,0 6,0 8 4 WSW 10
04.06.2020 07:00:00 9,0 5,0 5 3 - 10
04.06.2020 06:00:00 9,0 5,0 5 3 - 10
04.06.2020 05:00:00 8,0 5,0 5 3 - 10
04.06.2020 04:00:00 9,0 5,0 8 4 W 10
04.06.2020 03:00:00 9,0 7,0 4 2 - 10
04.06.2020 02:00:00 9,0 7,0 8 4 NE 10
04.06.2020 01:00:00 10,0 7,0 9 5 NE 10
04.06.2020 00:00:00 10,0 6,0 9 5 NNE 10
03.06.2020 23:00:00 11,0 5,0 4 2 - 10
03.06.2020 22:00:00 13,0 4,0 5 3 NNE 10
03.06.2020 21:00:00 14,0 3,0 13 7 NNE 10
03.06.2020 20:00:00 15,0 3,0 11 6 N 10
03.06.2020 19:00:00 15,0 2,0 11 6 NNE 10
03.06.2020 18:00:00 16,0 5,0 11 6 ENE 10
03.06.2020 17:00:00 16,0 4,0 21 11 ENE 10
03.06.2020 16:00:00 16,0 3,0 16 9 N 10
03.06.2020 15:00:00 15,0 4,0 5 3 - 10
03.06.2020 14:00:00 15,0 4,0 16 9 NNE 10
03.06.2020 13:00:00 15,0 5,0 18 10 N 10
03.06.2020 12:00:00 14,0 5,0 16 9 NE 10
03.06.2020 11:00:00 13,0 5,0 15 8 NE 10
03.06.2020 10:00:00 12,0 5,0 21 11 NNE 10
03.06.2020 09:00:00 12,0 5,0 13 7 NE 10
03.06.2020 08:00:00 11,0 5,0 15 8 ENE 10
03.06.2020 07:00:00 9,0 5,0 15 8 NNE 10
03.06.2020 06:00:00 9,0 7,0 9 5 NE 10
03.06.2020 05:00:00 9,0 7,0 16 9 ENE 10
03.06.2020 04:00:00 10,0 7,0 18 10 ENE 10
03.06.2020 03:00:00 10,0 8,0 16 9 NE 10
03.06.2020 02:00:00 11,0 9,0 22 12 ENE 10
03.06.2020 01:00:00 12,0 10,0 24 13 E 10
03.06.2020 00:00:00 12,0 11,0 21 11 ENE 10
02.06.2020 23:00:00 13,0 12,0 15 8 E 10
02.06.2020 22:00:00 14,0 12,0 8 4 WNW 6
02.06.2020 21:00:00 16,0 13,0 8 4 NNW 10
02.06.2020 20:00:00 18,0 11,0 11 6 E 10
02.06.2020 19:00:00 18,0 10,0 8 4 NE 10
02.06.2020 18:00:00 20,0 11,0 13 7 N 10
02.06.2020 17:00:00 21,0 11,0 16 9 W 10
02.06.2020 16:00:00 22,0 12,0 15 8 W 10
02.06.2020 15:00:00 22,0 12,0 13 7 WSW 10
02.06.2020 14:00:00 22,0 11,0 13 7 WSW 10
02.06.2020 13:00:00 22,0 11,0 13 7 SSW 10
02.06.2020 12:00:00 21,0 11,0 11 6 WSW 10
02.06.2020 11:00:00 19,0 12,0 5 3 - 10
02.06.2020 10:00:00 17,0 10,0 4 2 - 10
02.06.2020 09:00:00 16,0 10,0 2 1 - 10
02.06.2020 08:00:00 13,0 10,0 2 1 - 10
02.06.2020 07:00:00 12,0 9,0 4 2 W 10
02.06.2020 06:00:00 10,0 9,0 2 1 - 10
02.06.2020 05:00:00 10,0 9,0 2 1 - 10
02.06.2020 04:00:00 10,0 9,0 5 3 WSW 10
02.06.2020 03:00:00 12,0 9,0 4 2 WSW 10
02.06.2020 02:00:00 12,0 10,0 2 1 - 10
02.06.2020 01:00:00 12,0 9,0 9 5 WSW 10
02.06.2020 00:00:00 13,0 10,0 8 4 WSW 10
01.06.2020 23:00:00 15,0 11,0 11 6 WSW 10
01.06.2020 22:00:00 18,0 9,0 8 4 NE 10
01.06.2020 21:00:00 20,0 10,0 8 4 N 10
01.06.2020 20:00:00 23,0 8,0 5 3 - 10
01.06.2020 19:00:00 23,0 9,0 15 8 WNW 10
01.06.2020 18:00:00 23,0 10,0 15 8 WNW 10
01.06.2020 17:00:00 24,0 7,0 5 3 - 10
01.06.2020 16:00:00 24,0 7,0 9 5 NNE 10
01.06.2020 15:00:00 24,0 8,0 8 4 NW 10
01.06.2020 14:00:00 23,0 8,0 9 5 WNW 10
01.06.2020 13:00:00 23,0 8,0 8 4 N 10
01.06.2020 12:00:00 21,0 8,0 4 2 - 10
01.06.2020 11:00:00 20,0 10,0 4 2 - 10
01.06.2020 10:00:00 18,0 10,0 4 2 - 10
01.06.2020 09:00:00 16,0 9,0 8 4 NE 10
01.06.2020 08:00:00 14,0 9,0 9 5 ENE 10
01.06.2020 07:00:00 10,0 8,0 4 2 WSW 10
01.06.2020 06:00:00 7,0 6,0 2 1 W 10
01.06.2020 05:00:00 8,0 6,0 2 1 - 10
01.06.2020 04:00:00 9,0 8,0 5 3 - 10
01.06.2020 03:00:00 11,0 7,0 8 4 ENE 10
01.06.2020 02:00:00 11,0 7,0 9 5 ENE 10
01.06.2020 01:00:00 11,0 8,0 16 9 ENE 10
01.06.2020 00:00:00 13,0 8,0 11 6 ENE 10
31.05.2020 23:00:00 14,0 8,0 15 8 NE 10
31.05.2020 22:00:00 15,0 8,0 11 6 NE 10
31.05.2020 21:00:00 18,0 8,0 22 12 E 10
31.05.2020 20:00:00 19,0 7,0 16 9 ENE 10
31.05.2020 19:00:00 21,0 8,0 21 11 ENE 10
31.05.2020 18:00:00 21,0 8,0 24 13 ENE 10
31.05.2020 17:00:00 22,0 9,0 26 14 NE 10
31.05.2020 16:00:00 21,0 9,0 28 15 NE 10
31.05.2020 15:00:00 22,0 9,0 21 11 ENE 10
31.05.2020 14:00:00 21,0 8,0 21 11 NE 10
31.05.2020 13:00:00 20,0 8,0 15 8 ENE 10
31.05.2020 12:00:00 19,0 9,0 18 10 NE 10
31.05.2020 11:00:00 18,0 9,0 16 9 ENE 10

tt = temperature
td = dewpoint
ff = wind speed
dd = wind direction
vv = visibility

Next stations